Decoded Metar for UHHH (KHABAROVSK in RUSSIA) (IATA:KHV) | Meteo·Mobile Aviation Weather
aviador You're here:

UHHH Decoded Metar

KHABAROVSK in RUSSIA
Report Time2018-12-11 11:30:00
UTC Time2018-12-11 11:43:46
Flight Rules vfr VFR
Wind230° at 10 kt
W.Decomp.*RWY 23: 9.8 kt HW 1.9 kt RCW
W.Rank230° ranks 4
Current wind is above 230° avg. (9.2)
Visibility9999 m
Phenomena:N/A
Clouds:N/A
Expected CloudBase > 2,000 ft AGL from Temp-Dew spread
CeilingNone
Temp-17°C (ISA -32)
Dew Point-22°C (65% RH)
AAT-24.3°C
QNH1027 hPa
Density Alt-4,239 ft
Elevation236 ft
Report Wrong Elevation
Raw Report
METAR UHHH 111130Z 23005MPS CAVOK M17/M22 Q1027 R23L/090060 NOSIG RMK
QFE764/1018=

Extra information for UHHH:More info

Metar Taf Metar & Taf Last 4 Metars F.Rules Stats Wind Profile Meteogram Temp Stats Airport Information Weather charts Add Link Nearby VenuesMetar ALERT Operation Metar Decoded Social comments